sensor_id;sensor_type;location;lat;lon;timestamp;pressure;altitude;pressure_sealevel;temperature;humidity
50696;BME280;36665;51.786;21.594;2023-02-15T00:02:25;93172.89;;;2.98;79.19
50696;BME280;36665;51.786;21.594;2023-02-15T00:10:48;93174.27;;;2.98;79.21
50696;BME280;36665;51.786;21.594;2023-02-15T00:19:12;93154.29;;;2.92;79.06
50696;BME280;36665;51.786;21.594;2023-02-15T00:27:36;93133.45;;;2.88;79.09
50696;BME280;36665;51.786;21.594;2023-02-15T00:36:01;93130.39;;;2.86;79.16
50696;BME280;36665;51.786;21.594;2023-02-15T00:44:24;93116.83;;;2.83;79.28
50696;BME280;36665;51.786;21.594;2023-02-15T00:52:51;93112.64;;;2.82;79.26
50696;BME280;36665;51.786;21.594;2023-02-15T01:01:19;93128.40;;;2.86;79.10
50696;BME280;36665;51.786;21.594;2023-02-15T01:09:42;93138.00;;;2.87;79.12
50696;BME280;36665;51.786;21.594;2023-02-15T01:18:05;93135.20;;;2.87;79.25
50696;BME280;36665;51.786;21.594;2023-02-15T01:26:28;93130.90;;;2.86;79.13
50696;BME280;36665;51.786;21.594;2023-02-15T01:34:52;93116.30;;;2.82;79.19
50696;BME280;36665;51.786;21.594;2023-02-15T01:43:15;93115.79;;;2.82;79.17
50696;BME280;36665;51.786;21.594;2023-02-15T01:51:41;93127.11;;;2.84;79.12
50696;BME280;36665;51.786;21.594;2023-02-15T02:00:06;93110.50;;;2.80;79.19
50696;BME280;36665;51.786;21.594;2023-02-15T02:08:37;93093.27;;;2.76;79.17
50696;BME280;36665;51.786;21.594;2023-02-15T02:17:16;93077.31;;;2.71;79.07
50696;BME280;36665;51.786;21.594;2023-02-15T02:43:02;93009.34;;;2.53;79.21
50696;BME280;36665;51.786;21.594;2023-02-15T02:51:28;93014.44;;;2.53;79.14
50696;BME280;36665;51.786;21.594;2023-02-15T02:59:55;93022.77;;;2.56;79.13
50696;BME280;36665;51.786;21.594;2023-02-15T03:08:24;92998.36;;;2.50;79.28
50696;BME280;36665;51.786;21.594;2023-02-15T03:16:51;92990.53;;;2.47;79.17
50696;BME280;36665;51.786;21.594;2023-02-15T03:25:27;93000.64;;;2.49;79.35
50696;BME280;36665;51.786;21.594;2023-02-15T03:34:01;92985.63;;;2.46;79.23
50696;BME280;36665;51.786;21.594;2023-02-15T03:42:37;92967.95;;;2.40;79.35
50696;BME280;36665;51.786;21.594;2023-02-15T03:51:06;92959.38;;;2.39;79.19
50696;BME280;36665;51.786;21.594;2023-02-15T03:59:49;93000.63;;;2.49;79.20
50696;BME280;36665;51.786;21.594;2023-02-15T04:08:34;92998.45;;;2.49;79.43
50696;BME280;36665;51.786;21.594;2023-02-15T04:17:16;92956.30;;;2.38;79.37
50696;BME280;36665;51.786;21.594;2023-02-15T04:25:39;92942.37;;;2.33;79.45
50696;BME280;36665;51.786;21.594;2023-02-15T04:34:02;92955.48;;;2.38;79.28
50696;BME280;36665;51.786;21.594;2023-02-15T04:42:25;92967.34;;;2.41;79.34
50696;BME280;36665;51.786;21.594;2023-02-15T04:50:49;92963.25;;;2.39;79.46
50696;BME280;36665;51.786;21.594;2023-02-15T04:59:12;92957.98;;;2.39;79.26
50696;BME280;36665;51.786;21.594;2023-02-15T05:07:35;92979.11;;;2.44;79.46
50696;BME280;36665;51.786;21.594;2023-02-15T05:15:58;92983.36;;;2.45;79.42
50696;BME280;36665;51.786;21.594;2023-02-15T05:24:22;92955.05;;;2.38;79.41
50696;BME280;36665;51.786;21.594;2023-02-15T05:33:04;92973.13;;;2.43;79.49
50696;BME280;36665;51.786;21.594;2023-02-15T05:41:27;93008.27;;;2.52;79.34
50696;BME280;36665;51.786;21.594;2023-02-15T05:49:50;92989.30;;;2.46;79.22
50696;BME280;36665;51.786;21.594;2023-02-15T05:58:13;92956.58;;;2.37;79.29
50696;BME280;36665;51.786;21.594;2023-02-15T06:06:36;92949.54;;;2.35;79.39
50696;BME280;36665;51.786;21.594;2023-02-15T06:14:59;92954.49;;;2.37;79.43
50696;BME280;36665;51.786;21.594;2023-02-15T06:23:22;92950.38;;;2.36;79.31
50696;BME280;36665;51.786;21.594;2023-02-15T06:31:45;92910.44;;;2.26;79.49
50696;BME280;36665;51.786;21.594;2023-02-15T06:40:08;92897.38;;;2.21;79.40
50696;BME280;36665;51.786;21.594;2023-02-15T06:48:31;92918.09;;;2.26;79.19
50696;BME280;36665;51.786;21.594;2023-02-15T06:56:55;92938.21;;;2.31;79.29
50696;BME280;36665;51.786;21.594;2023-02-15T07:05:18;92937.95;;;2.31;79.51
50696;BME280;36665;51.786;21.594;2023-02-15T07:13:41;92954.90;;;2.37;79.38
50696;BME280;36665;51.786;21.594;2023-02-15T07:22:05;92946.35;;;2.34;79.59
50696;BME280;36665;51.786;21.594;2023-02-15T07:30:29;92927.48;;;2.28;79.49
50696;BME280;36665;51.786;21.594;2023-02-15T07:38:52;92915.09;;;2.25;79.67
50696;BME280;36665;51.786;21.594;2023-02-15T07:47:15;92913.11;;;2.25;79.73
50696;BME280;36665;51.786;21.594;2023-02-15T07:55:38;92906.76;;;2.23;79.53
50696;BME280;36665;51.786;21.594;2023-02-15T08:04:03;92903.41;;;2.23;79.41
50696;BME280;36665;51.786;21.594;2023-02-15T08:12:27;92907.23;;;2.24;79.57
50696;BME280;36665;51.786;21.594;2023-02-15T08:20:51;92883.05;;;2.17;79.51
50696;BME280;36665;51.786;21.594;2023-02-15T08:29:20;92841.71;;;2.07;79.45
50696;BME280;36665;51.786;21.594;2023-02-15T08:37:46;92841.95;;;2.06;79.39
50696;BME280;36665;51.786;21.594;2023-02-15T08:46:11;92872.83;;;2.15;79.50
50696;BME280;36665;51.786;21.594;2023-02-15T08:54:34;92888.38;;;2.19;79.51
50696;BME280;36665;51.786;21.594;2023-02-15T09:02:57;92889.56;;;2.21;79.59
50696;BME280;36665;51.786;21.594;2023-02-15T09:11:26;92888.10;;;2.20;79.55
50696;BME280;36665;51.786;21.594;2023-02-15T09:19:53;92924.26;;;2.28;79.38
50696;BME280;36665;51.786;21.594;2023-02-15T09:28:16;92943.48;;;2.33;79.77
50696;BME280;36665;51.786;21.594;2023-02-15T09:36:40;92927.95;;;2.29;79.79
50696;BME280;36665;51.786;21.594;2023-02-15T10:19:04;92940.42;;;2.32;79.54
50696;BME280;36665;51.786;21.594;2023-02-15T10:27:40;92951.36;;;2.34;79.64
50696;BME280;36665;51.786;21.594;2023-02-15T10:44:47;92976.38;;;2.42;79.76
50696;BME280;36665;51.786;21.594;2023-02-15T11:02:37;92982.68;;;2.43;79.67
50696;BME280;36665;51.786;21.594;2023-02-15T11:11:08;93018.19;;;2.52;79.60
50696;BME280;36665;51.786;21.594;2023-02-15T11:19:36;93006.92;;;2.50;79.44
50696;BME280;36665;51.786;21.594;2023-02-15T11:28:05;93008.13;;;2.50;79.88
50696;BME280;36665;51.786;21.594;2023-02-15T11:36:38;93037.93;;;2.57;79.80
50696;BME280;36665;51.786;21.594;2023-02-15T11:45:28;93020.94;;;2.52;79.79
50696;BME280;36665;51.786;21.594;2023-02-15T11:53:52;93018.59;;;2.52;79.84
50696;BME280;36665;51.786;21.594;2023-02-15T12:02:20;93016.56;;;2.52;79.73
50696;BME280;36665;51.786;21.594;2023-02-15T12:11:09;93003.84;;;2.49;79.58
50696;BME280;36665;51.786;21.594;2023-02-15T12:19:40;93019.23;;;2.52;79.50
50696;BME280;36665;51.786;21.594;2023-02-15T12:28:15;93054.52;;;2.62;79.69
50696;BME280;36665;51.786;21.594;2023-02-15T12:36:50;93045.40;;;2.59;79.82
50696;BME280;36665;51.786;21.594;2023-02-15T12:53:47;93035.30;;;2.57;79.63
50696;BME280;36665;51.786;21.594;2023-02-15T13:11:08;93044.14;;;2.60;79.68
50696;BME280;36665;51.786;21.594;2023-02-15T13:19:33;93064.74;;;2.65;79.68
50696;BME280;36665;51.786;21.594;2023-02-15T13:28:01;93033.23;;;2.56;79.71
50696;BME280;36665;51.786;21.594;2023-02-15T14:02:54;93033.23;;;2.56;79.60
50696;BME280;36665;51.786;21.594;2023-02-15T14:29:19;93072.23;;;2.67;79.81
50696;BME280;36665;51.786;21.594;2023-02-15T14:55:36;93057.55;;;2.63;79.57
50696;BME280;36665;51.786;21.594;2023-02-15T15:04:07;93055.45;;;2.62;79.38
50696;BME280;36665;51.786;21.594;2023-02-15T15:20:56;93008.25;;;2.49;79.55
50696;BME280;36665;51.786;21.594;2023-02-15T15:29:39;93009.88;;;2.50;79.35
50696;BME280;36665;51.786;21.594;2023-02-15T15:38:19;93021.70;;;2.53;79.54
50696;BME280;36665;51.786;21.594;2023-02-15T15:55:33;92958.65;;;2.37;79.65
50696;BME280;36665;51.786;21.594;2023-02-15T16:03:58;92935.77;;;2.31;79.44
50696;BME280;36665;51.786;21.594;2023-02-15T16:12:22;92917.02;;;2.25;79.20
50696;BME280;36665;51.786;21.594;2023-02-15T16:20:55;92883.30;;;2.17;79.30
50696;BME280;36665;51.786;21.594;2023-02-15T16:29:28;92880.52;;;2.16;79.25
50696;BME280;36665;51.786;21.594;2023-02-15T16:37:52;92888.19;;;2.18;79.50
50696;BME280;36665;51.786;21.594;2023-02-15T16:55:22;92827.29;;;2.02;79.18
50696;BME280;36665;51.786;21.594;2023-02-15T17:03:48;92775.50;;;1.88;79.17
50696;BME280;36665;51.786;21.594;2023-02-15T17:12:11;92706.63;;;1.69;79.21
50696;BME280;36665;51.786;21.594;2023-02-15T17:20:37;92607.95;;;1.43;79.11
50696;BME280;36665;51.786;21.594;2023-02-15T17:29:11;92516.50;;;1.18;78.99
50696;BME280;36665;51.786;21.594;2023-02-15T17:46:00;92336.66;;;0.70;78.76
50696;BME280;36665;51.786;21.594;2023-02-15T17:54:23;92249.97;;;0.46;78.80
50696;BME280;36665;51.786;21.594;2023-02-15T18:03:23;92139.06;;;0.16;78.75
50696;BME280;36665;51.786;21.594;2023-02-15T18:12:22;92041.59;;;-0.10;78.36
50696;BME280;36665;51.786;21.594;2023-02-15T18:20:45;91971.66;;;-0.28;78.60
50696;BME280;36665;51.786;21.594;2023-02-15T18:29:08;91917.05;;;-0.43;78.38
50696;BME280;36665;51.786;21.594;2023-02-15T18:37:32;91842.44;;;-0.65;78.18
50696;BME280;36665;51.786;21.594;2023-02-15T18:45:55;91797.47;;;-0.77;78.43
50696;BME280;36665;51.786;21.594;2023-02-15T18:54:21;91777.42;;;-0.82;78.27
50696;BME280;36665;51.786;21.594;2023-02-15T19:02:46;91734.81;;;-0.93;78.22
50696;BME280;36665;51.786;21.594;2023-02-15T19:11:16;91712.87;;;-0.99;78.38
50696;BME280;36665;51.786;21.594;2023-02-15T19:19:40;91707.78;;;-1.01;78.17
50696;BME280;36665;51.786;21.594;2023-02-15T19:28:11;91701.86;;;-1.01;78.14
50696;BME280;36665;51.786;21.594;2023-02-15T19:36:35;91690.34;;;-1.05;78.37
50696;BME280;36665;51.786;21.594;2023-02-15T19:44:58;91685.46;;;-1.07;78.43
50696;BME280;36665;51.786;21.594;2023-02-15T19:53:23;91669.13;;;-1.11;78.15
50696;BME280;36665;51.786;21.594;2023-02-15T20:01:47;91669.80;;;-1.11;78.23
50696;BME280;36665;51.786;21.594;2023-02-15T20:10:21;91672.50;;;-1.10;78.42
50696;BME280;36665;51.786;21.594;2023-02-15T20:18:44;91651.70;;;-1.17;78.40
50696;BME280;36665;51.786;21.594;2023-02-15T20:27:15;91644.42;;;-1.17;78.29
50696;BME280;36665;51.786;21.594;2023-02-15T20:35:41;91679.96;;;-1.08;78.21
50696;BME280;36665;51.786;21.594;2023-02-15T20:44:19;91689.20;;;-1.05;78.36
50696;BME280;36665;51.786;21.594;2023-02-15T20:52:43;91694.59;;;-1.03;78.54
50696;BME280;36665;51.786;21.594;2023-02-15T21:01:10;91696.80;;;-1.03;78.55
50696;BME280;36665;51.786;21.594;2023-02-15T21:09:34;91673.65;;;-1.09;78.44
50696;BME280;36665;51.786;21.594;2023-02-15T21:18:00;91685.86;;;-1.07;78.49
50696;BME280;36665;51.786;21.594;2023-02-15T21:26:24;91687.47;;;-1.06;78.27
50696;BME280;36665;51.786;21.594;2023-02-15T21:34:47;91684.10;;;-1.07;78.45
50696;BME280;36665;51.786;21.594;2023-02-15T21:43:21;91681.27;;;-1.08;78.43
50696;BME280;36665;51.786;21.594;2023-02-15T21:52:04;91642.27;;;-1.17;78.69
50696;BME280;36665;51.786;21.594;2023-02-15T22:00:34;91600.58;;;-1.30;78.44
50696;BME280;36665;51.786;21.594;2023-02-15T22:08:57;91538.52;;;-1.46;78.53
50696;BME280;36665;51.786;21.594;2023-02-15T22:17:24;91549.73;;;-1.43;78.43
50696;BME280;36665;51.786;21.594;2023-02-15T22:25:56;91560.14;;;-1.40;78.43
50696;BME280;36665;51.786;21.594;2023-02-15T22:34:28;91536.52;;;-1.47;78.66
50696;BME280;36665;51.786;21.594;2023-02-15T22:42:53;91521.40;;;-1.51;78.74
50696;BME280;36665;51.786;21.594;2023-02-15T22:51:19;91492.77;;;-1.59;78.51
50696;BME280;36665;51.786;21.594;2023-02-15T22:59:44;91462.46;;;-1.67;78.60
50696;BME280;36665;51.786;21.594;2023-02-15T23:08:09;91463.05;;;-1.68;78.55
50696;BME280;36665;51.786;21.594;2023-02-15T23:16:33;91430.27;;;-1.76;78.58
50696;BME280;36665;51.786;21.594;2023-02-15T23:24:56;91389.29;;;-1.86;78.41
50696;BME280;36665;51.786;21.594;2023-02-15T23:33:23;91393.32;;;-1.86;78.68
50696;BME280;36665;51.786;21.594;2023-02-15T23:41:48;91367.27;;;-1.94;78.56
50696;BME280;36665;51.786;21.594;2023-02-15T23:50:21;91303.54;;;-2.11;78.50
50696;BME280;36665;51.786;21.594;2023-02-15T23:58:45;91278.86;;;-2.18;78.49
